Time;durP1;ratioP1;P1;durP2;ratioP2;P2;SDS_P1;SDS_P2;PMS_P1;PMS_P2;Temp;Humidity;BMP_temperature;BMP_pressure;BME280_temperature;BME280_humidity;BME280_pressure;Samples;Min_cycle;Max_cycle;Signal;HPM_P1;HPM_P2
2022/11/02 00:02:19;;;;;;;2.72;2.15;;;8.50;99.90;;;;;;5033133;28;20205;-72
2022/11/02 00:04:46;;;;;;;2.00;1.73;;;8.40;99.90;;;;;;5033224;28;20222;-71
2022/11/02 00:07:13;;;;;;;5.45;1.52;;;8.40;99.90;;;;;;5033697;28;20228;-71
2022/11/02 00:09:39;;;;;;;1.52;1.42;;;8.40;99.90;;;;;;5034230;28;20208;-71
2022/11/02 00:12:07;;;;;;;2.25;1.40;;;8.40;99.90;;;;;;5033116;28;20570;-71
2022/11/02 00:14:34;;;;;;;3.33;1.77;;;8.40;99.90;;;;;;5033294;28;20226;-71
2022/11/02 00:17:02;;;;;;;2.80;1.25;;;8.40;99.90;;;;;;5033492;28;20209;-71
2022/11/02 00:19:29;;;;;;;4.88;1.83;;;8.40;99.90;;;;;;5033152;28;20213;-72
2022/11/02 00:21:57;;;;;;;2.05;1.63;;;8.30;99.90;;;;;;5032480;28;20202;-72
2022/11/02 00:24:24;;;;;;;3.15;1.73;;;8.30;99.90;;;;;;5033147;28;20221;-72
2022/11/02 00:26:52;;;;;;;2.58;1.40;;;8.30;99.90;;;;;;5032941;28;20490;-71
2022/11/02 00:29:19;;;;;;;3.22;2.20;;;8.30;99.90;;;;;;5030011;28;20202;-71
2022/11/02 00:31:46;;;;;;;5.13;1.90;;;8.30;99.90;;;;;;5031945;28;20211;-71
2022/11/02 00:34:14;;;;;;;2.35;1.40;;;8.30;99.90;;;;;;5196431;22;20217;-72
2022/11/02 00:36:41;;;;;;;2.35;1.58;;;8.30;99.90;;;;;;4992390;28;20585;-71
2022/11/02 00:39:08;;;;;;;2.00;1.60;;;8.30;99.90;;;;;;4993525;28;20200;-72
2022/11/02 00:41:34;;;;;;;3.53;1.95;;;8.30;99.90;;;;;;4993150;28;20568;-70
2022/11/02 00:44:01;;;;;;;4.43;1.63;;;8.30;99.90;;;;;;4993401;28;20291;-71
2022/11/02 00:46:28;;;;;;;2.40;1.40;;;8.30;99.90;;;;;;4993699;28;20222;-70
2022/11/02 00:48:55;;;;;;;2.85;1.60;;;8.30;99.90;;;;;;4993435;28;20220;-70
2022/11/02 00:51:23;;;;;;;2.53;1.55;;;8.30;99.90;;;;;;4992911;28;20207;-71
2022/11/02 00:53:49;;;;;;;1.38;1.27;;;8.30;99.90;;;;;;4993117;28;20228;-71
2022/11/02 00:56:16;;;;;;;1.40;1.20;;;8.30;99.90;;;;;;4993495;28;20206;-70
2022/11/02 00:58:43;;;;;;;3.25;1.77;;;8.30;99.90;;;;;;4993200;28;20213;-70
2022/11/02 01:01:10;;;;;;;2.53;1.55;;;8.30;99.90;;;;;;4993138;28;20210;-70
2022/11/02 01:03:37;;;;;;;2.30;1.40;;;8.30;99.90;;;;;;4993076;28;20670;-71
2022/11/02 01:06:08;;;;;;;2.65;1.70;;;8.30;99.90;;;;;;4993009;28;20534;-69
2022/11/02 01:08:37;;;;;;;1.70;1.45;;;8.30;99.90;;;;;;4993209;28;20207;-71
2022/11/02 01:11:12;;;;;;;4.80;1.90;;;8.30;99.90;;;;;;4992957;28;20319;-72
2022/11/02 01:13:38;;;;;;;1.80;1.33;;;8.30;99.90;;;;;;4992808;28;20209;-71
2022/11/02 01:16:06;;;;;;;2.33;1.38;;;8.30;99.90;;;;;;4992850;28;20227;-70
2022/11/02 01:18:32;;;;;;;3.78;1.35;;;8.40;99.90;;;;;;4993195;28;20202;-71
2022/11/02 01:21:00;;;;;;;1.50;1.27;;;8.40;99.90;;;;;;4992498;28;20214;-70
2022/11/02 01:23:27;;;;;;;1.98;1.50;;;8.40;99.90;;;;;;4991821;28;20314;-71
2022/11/02 01:25:55;;;;;;;1.75;1.35;;;8.40;99.90;;;;;;4992558;28;20323;-70
2022/11/02 01:28:22;;;;;;;1.75;1.25;;;8.40;99.90;;;;;;4992783;28;20202;-69
2022/11/02 01:30:48;;;;;;;2.40;1.85;;;8.40;99.90;;;;;;4992444;28;20227;-70
2022/11/02 01:33:15;;;;;;;1.40;1.23;;;8.40;99.90;;;;;;4992123;28;20220;-71
2022/11/02 01:35:42;;;;;;;2.40;1.70;;;8.40;99.90;;;;;;4992221;28;20321;-71
2022/11/02 01:38:08;;;;;;;2.40;1.90;;;8.50;99.90;;;;;;4992601;28;20582;-70
2022/11/02 01:40:36;;;;;;;3.55;1.70;;;8.50;99.90;;;;;;4992470;28;20208;-70
2022/11/02 01:43:22;;;;;;;3.08;1.65;;;8.50;99.90;;;;;;4991982;28;20206;-71
2022/11/02 01:45:52;;;;;;;1.77;1.63;;;8.50;99.90;;;;;;4992131;28;20565;-71
2022/11/02 01:48:21;;;;;;;2.00;1.80;;;8.60;99.90;;;;;;4992350;28;20217;-71
2022/11/02 01:50:49;;;;;;;1.80;1.52;;;8.60;99.90;;;;;;4992160;28;20221;-71
2022/11/02 01:53:16;;;;;;;2.70;1.70;;;8.60;99.90;;;;;;4991832;28;20212;-71
2022/11/02 01:55:43;;;;;;;2.20;1.40;;;8.50;99.90;;;;;;4992074;28;20229;-71
2022/11/02 01:58:12;;;;;;;2.97;2.00;;;8.60;99.90;;;;;;4992431;28;20208;-71
2022/11/02 02:00:40;;;;;;;1.48;1.27;;;8.60;99.90;;;;;;4991997;28;20210;-70
2022/11/02 02:03:09;;;;;;;1.85;1.55;;;8.60;99.90;;;;;;4991462;28;20203;-71
2022/11/02 02:05:40;;;;;;;1.85;1.58;;;8.60;99.90;;;;;;4992245;28;20595;-71
2022/11/02 02:08:07;;;;;;;3.70;1.90;;;8.60;99.90;;;;;;4992063;28;20314;-69
2022/11/02 02:10:35;;;;;;;1.50;1.40;;;8.60;99.90;;;;;;4991990;28;20242;-71
2022/11/02 02:13:03;;;;;;;1.35;1.25;;;8.60;99.90;;;;;;4991274;28;20207;-71
2022/11/02 02:15:44;;;;;;;2.58;1.75;;;8.50;99.90;;;;;;4991680;28;20234;-70
2022/11/02 02:18:16;;;;;;;1.40;1.30;;;8.50;99.90;;;;;;4991992;28;20662;-70
2022/11/02 02:20:59;;;;;;;4.13;2.25;;;8.60;99.90;;;;;;4991834;28;20208;-71
2022/11/02 02:23:44;;;;;;;5.60;1.75;;;8.60;99.90;;;;;;4991648;28;20208;-70
2022/11/02 02:26:44;;;;;;;2.03;1.33;;;8.50;99.90;;;;;;4991757;28;20282;-70
2022/11/02 02:29:19;;;;;;;1.60;1.50;;;8.50;99.90;;;;;;4980757;28;20206;-70
2022/11/02 02:31:52;;;;;;;1.70;1.60;;;8.50;99.90;;;;;;4991018;28;20206;-71
2022/11/02 02:34:23;;;;;;;2.30;2.10;;;8.50;99.90;;;;;;4991333;28;20230;-70
2022/11/02 02:36:52;;;;;;;1.48;1.20;;;8.50;99.90;;;;;;4990487;28;20676;-70
2022/11/02 02:39:26;;;;;;;2.25;1.80;;;8.50;99.90;;;;;;4991532;28;20200;-70
2022/11/02 02:41:59;;;;;;;2.17;1.70;;;8.50;99.90;;;;;;4990902;28;20207;-71
2022/11/02 02:44:33;;;;;;;1.48;1.30;;;8.50;99.90;;;;;;4991497;28;20748;-70
2022/11/02 02:47:04;;;;;;;3.55;1.65;;;8.60;99.90;;;;;;4991279;28;20699;-71
2022/11/02 02:49:36;;;;;;;1.88;1.60;;;8.60;99.90;;;;;;4991526;28;20209;-72
2022/11/02 02:52:03;;;;;;;2.53;1.50;;;8.50;99.90;;;;;;4990927;28;20203;-72
2022/11/02 02:54:34;;;;;;;2.90;1.92;;;8.60;99.90;;;;;;4991279;28;20238;-70
2022/11/02 02:57:06;;;;;;;2.08;1.60;;;8.60;99.90;;;;;;4991270;28;20211;-72
2022/11/02 02:59:39;;;;;;;2.95;1.60;;;8.50;99.90;;;;;;4991488;28;20203;-72
2022/11/02 03:02:07;;;;;;;1.52;1.42;;;8.50;99.90;;;;;;4990933;28;20219;-71
2022/11/02 03:04:34;;;;;;;3.25;1.38;;;8.50;99.90;;;;;;4991261;28;20223;-72
2022/11/02 03:07:02;;;;;;;2.22;1.45;;;8.50;99.90;;;;;;4991102;28;20217;-71
2022/11/02 03:09:36;;;;;;;2.65;1.80;;;8.50;99.90;;;;;;4991096;28;20211;-70
2022/11/02 03:12:17;;;;;;;3.80;2.05;;;8.50;99.90;;;;;;4990702;28;20690;-70
2022/11/02 03:14:56;;;;;;;3.15;1.70;;;8.50;99.90;;;;;;4991011;28;20231;-70
2022/11/02 03:17:32;;;;;;;3.92;2.05;;;8.50;99.90;;;;;;4991307;28;20210;-72
2022/11/02 03:20:05;;;;;;;3.88;1.60;;;8.50;99.90;;;;;;4991321;28;20206;-72
2022/11/02 03:22:38;;;;;;;1.83;1.60;;;8.60;99.90;;;;;;4990811;28;20310;-72
2022/11/02 03:25:13;;;;;;;3.55;1.67;;;8.60;99.90;;;;;;4991150;28;20270;-71
2022/11/02 03:27:46;;;;;;;2.38;1.65;;;8.60;99.90;;;;;;4991182;28;20203;-71
2022/11/02 03:30:17;;;;;;;2.13;1.92;;;8.70;99.90;;;;;;4991115;28;20213;-71
2022/11/02 03:32:53;;;;;;;3.25;1.85;;;8.70;99.90;;;;;;4990479;28;20208;-71
2022/11/02 03:35:25;;;;;;;1.65;1.55;;;8.80;99.90;;;;;;4990888;28;20233;-71
2022/11/02 03:37:56;;;;;;;1.90;1.48;;;8.80;99.90;;;;;;4990921;28;20211;-71
2022/11/02 03:40:26;;;;;;;1.30;1.20;;;8.80;99.90;;;;;;4991062;28;20207;-71
2022/11/02 03:42:54;;;;;;;2.35;1.60;;;8.90;99.90;;;;;;4990571;28;20581;-72
2022/11/02 03:45:26;;;;;;;2.10;1.60;;;8.90;99.90;;;;;;4990978;28;20229;-71
2022/11/02 03:47:57;;;;;;;1.80;1.60;;;9.00;99.90;;;;;;4993098;28;20215;-71
2022/11/02 03:50:26;;;;;;;2.45;1.73;;;9.00;99.90;;;;;;4994587;28;20222;-71
2022/11/02 03:52:57;;;;;;;2.15;1.88;;;9.10;99.90;;;;;;4993943;28;20211;-72
2022/11/02 03:55:29;;;;;;;1.65;1.45;;;9.10;99.90;;;;;;4994457;28;20600;-72
2022/11/02 03:57:56;;;;;;;1.45;1.35;;;9.10;99.90;;;;;;4994330;28;20211;-72
2022/11/02 04:00:26;;;;;;;1.88;1.50;;;9.10;99.90;;;;;;4994322;28;20212;-70
2022/11/02 04:02:56;;;;;;;1.42;1.33;;;9.10;99.90;;;;;;4993795;28;20210;-71
2022/11/02 04:05:28;;;;;;;2.92;2.22;;;9.10;99.90;;;;;;4994219;28;20710;-69
2022/11/02 04:14:36;;;;;;;1.63;1.40;;;9.10;99.90;;;;;;4994200;28;20326;-71
2022/11/02 04:16:13;;;;;;;3.60;1.88;;;9.10;99.90;;;;;;4993863;28;20242;-71
2022/11/02 04:21:24;;;;;;;2.38;1.65;;;9.00;99.90;;;;;;4993660;28;20197;-71
2022/11/02 04:26:36;;;;;;;1.60;1.33;;;9.10;99.90;;;;;;4994023;28;20201;-71
2022/11/02 04:29:03;;;;;;;2.25;1.73;;;9.00;99.90;;;;;;4993664;28;20204;-70
2022/11/02 04:31:31;;;;;;;2.60;1.30;;;9.10;99.90;;;;;;4993590;28;20206;-71
2022/11/02 04:33:58;;;;;;;3.08;1.80;;;9.10;99.90;;;;;;4993443;28;20211;-71
2022/11/02 04:36:25;;;;;;;2.33;1.63;;;9.10;99.90;;;;;;4993676;28;20399;-71
2022/11/02 04:38:51;;;;;;;7.53;1.58;;;9.20;99.90;;;;;;4993451;28;20226;-71
2022/11/02 04:44:04;;;;;;;3.63;1.25;;;9.20;99.90;;;;;;4993498;28;20438;-71
2022/11/02 04:46:34;;;;;;;2.30;1.48;;;9.30;99.90;;;;;;4993455;28;20195;-71
2022/11/02 04:49:01;;;;;;;1.63;1.50;;;9.30;99.90;;;;;;4993274;28;20211;-70
2022/11/02 04:51:29;;;;;;;2.35;1.40;;;9.30;99.90;;;;;;4992895;28;20210;-71
2022/11/02 04:53:57;;;;;;;3.30;1.70;;;9.30;99.90;;;;;;4993395;28;20215;-71
2022/11/02 04:56:24;;;;;;;1.77;1.20;;;9.30;99.90;;;;;;4993305;28;20231;-71
2022/11/02 04:58:53;;;;;;;1.55;1.30;;;9.40;99.90;;;;;;4992076;28;20232;-71
2022/11/02 05:01:20;;;;;;;4.40;1.50;;;9.40;99.90;;;;;;4992883;28;20204;-70
2022/11/02 05:03:49;;;;;;;1.92;1.52;;;9.40;99.90;;;;;;4992834;28;20209;-71
2022/11/02 05:06:16;;;;;;;1.38;1.20;;;9.50;99.90;;;;;;4993092;28;20203;-70
2022/11/02 05:08:42;;;;;;;1.30;1.20;;;9.50;99.90;;;;;;4992858;28;20694;-71
2022/11/02 05:11:10;;;;;;;1.95;1.50;;;9.50;99.90;;;;;;4992683;28;20286;-71
2022/11/02 05:13:38;;;;;;;1.10;1.00;;;9.50;99.90;;;;;;4992581;28;20213;-71
2022/11/02 05:16:06;;;;;;;2.42;1.52;;;9.40;99.90;;;;;;4992751;28;20232;-71
2022/11/02 05:18:33;;;;;;;3.50;1.70;;;9.50;99.90;;;;;;4992667;28;20211;-71
2022/11/02 05:21:01;;;;;;;1.85;1.20;;;9.40;99.90;;;;;;4992463;28;20214;-69
2022/11/02 05:23:29;;;;;;;4.10;1.75;;;9.40;99.90;;;;;;4992372;28;20212;-69
2022/11/02 05:25:59;;;;;;;4.63;1.80;;;9.40;99.90;;;;;;4992591;28;20721;-69
2022/11/02 05:28:27;;;;;;;1.70;1.60;;;9.40;99.90;;;;;;4992572;28;20269;-69
2022/11/02 05:30:54;;;;;;;2.10;1.67;;;9.40;99.90;;;;;;4992366;28;20207;-69
2022/11/02 05:33:21;;;;;;;1.70;1.60;;;9.40;99.90;;;;;;4992328;28;20204;-69
2022/11/02 05:35:48;;;;;;;1.42;1.33;;;9.40;99.90;;;;;;4992390;28;20604;-68
2022/11/02 05:38:16;;;;;;;3.15;1.60;;;9.40;99.90;;;;;;4992712;28;20203;-69
2022/11/02 05:40:43;;;;;;;1.85;1.30;;;9.40;99.90;;;;;;4992506;28;20218;-69
2022/11/02 05:43:10;;;;;;;2.55;1.40;;;9.40;99.90;;;;;;4992004;28;20203;-69
2022/11/02 05:45:37;;;;;;;4.50;1.60;;;9.40;99.90;;;;;;4992418;28;20223;-69
2022/11/02 05:48:06;;;;;;;2.58;1.65;;;9.40;99.90;;;;;;4992557;28;20215;-69
2022/11/02 05:50:33;;;;;;;4.00;1.50;;;9.50;99.90;;;;;;4992542;28;20211;-69
2022/11/02 05:52:59;;;;;;;2.05;1.40;;;9.50;99.90;;;;;;4992437;28;20207;-70
2022/11/02 05:55:27;;;;;;;2.10;1.50;;;9.50;99.90;;;;;;4992712;28;20633;-69
2022/11/02 05:57:55;;;;;;;1.38;1.27;;;9.50;99.90;;;;;;4992416;28;20211;-69
2022/11/02 06:00:23;;;;;;;1.52;1.08;;;9.50;99.90;;;;;;4992464;28;20210;-68
2022/11/02 06:02:55;;;;;;;1.85;1.35;;;9.50;99.90;;;;;;4991220;28;20208;-68
2022/11/02 06:05:21;;;;;;;1.85;1.70;;;9.50;99.90;;;;;;4991755;28;20226;-67
2022/11/02 06:07:48;;;;;;;4.63;1.25;;;9.40;99.90;;;;;;4991603;28;20226;-69
2022/11/02 06:10:15;;;;;;;1.35;1.25;;;9.50;99.90;;;;;;4991756;28;20664;-69
2022/11/02 06:12:43;;;;;;;1.92;1.70;;;9.40;99.90;;;;;;4991426;28;20203;-68
2022/11/02 06:15:11;;;;;;;1.85;1.27;;;9.40;99.90;;;;;;4991766;28;20227;-69
2022/11/02 06:17:38;;;;;;;4.25;1.33;;;9.40;99.90;;;;;;4992111;28;20203;-68
2022/11/02 06:20:06;;;;;;;1.33;1.23;;;9.40;99.90;;;;;;4991705;28;20211;-69
2022/11/02 06:22:39;;;;;;;2.00;1.33;;;9.40;99.90;;;;;;4991586;28;20203;-68
2022/11/02 06:25:06;;;;;;;2.00;1.30;;;9.50;99.90;;;;;;4991817;28;20215;-68
2022/11/02 06:27:32;;;;;;;3.38;1.77;;;9.50;99.90;;;;;;4991795;28;20204;-69
2022/11/02 06:30:01;;;;;;;2.05;1.85;;;9.50;99.90;;;;;;4991672;28;20685;-68
2022/11/02 06:32:28;;;;;;;2.28;1.60;;;9.50;99.90;;;;;;4991245;28;20654;-69
2022/11/02 06:34:54;;;;;;;3.72;1.63;;;9.50;99.90;;;;;;5075330;22;20229;-71
2022/11/02 06:37:22;;;;;;;2.40;1.33;;;9.50;99.90;;;;;;5049933;28;20197;-70
2022/11/02 06:39:48;;;;;;;1.95;1.38;;;9.60;99.90;;;;;;5049873;28;20251;-70
2022/11/02 06:42:15;;;;;;;2.35;1.42;;;9.60;99.90;;;;;;5050027;28;20209;-70
2022/11/02 06:44:42;;;;;;;5.03;1.40;;;9.70;99.90;;;;;;5050146;28;20733;-69
2022/11/02 06:47:10;;;;;;;3.55;1.52;;;9.80;99.90;;;;;;5050768;28;20198;-69
2022/11/02 06:49:37;;;;;;;1.27;1.05;;;9.80;99.90;;;;;;5050594;28;20220;-70
2022/11/02 06:52:04;;;;;;;2.47;1.67;;;9.90;99.90;;;;;;5050287;28;20213;-70
2022/11/02 06:54:30;;;;;;;3.00;1.23;;;9.90;99.90;;;;;;5050601;28;20229;-70
2022/11/02 06:56:57;;;;;;;2.53;1.60;;;10.00;99.90;;;;;;5050592;28;20599;-69
2022/11/02 06:59:24;;;;;;;3.70;1.50;;;10.10;99.90;;;;;;5050256;28;20233;-69
2022/11/02 07:01:53;;;;;;;1.65;1.20;;;10.20;99.90;;;;;;5050000;28;20216;-68
2022/11/02 07:04:21;;;;;;;3.75;1.50;;;10.20;99.90;;;;;;5051176;28;20612;-69
2022/11/02 07:06:51;;;;;;;4.20;1.65;;;10.30;99.90;;;;;;5051611;28;20198;-66
2022/11/02 07:09:17;;;;;;;3.22;1.55;;;10.40;99.90;;;;;;5051137;28;20707;-68
2022/11/02 07:11:44;;;;;;;1.50;1.20;;;10.50;99.90;;;;;;5050000;28;20206;-68
2022/11/02 07:14:11;;;;;;;9.80;1.60;;;10.50;99.90;;;;;;5050216;28;20229;-69
2022/11/02 07:16:38;;;;;;;2.75;1.55;;;10.60;99.90;;;;;;5049849;28;20225;-69
2022/11/02 07:19:04;;;;;;;4.30;1.35;;;10.70;99.90;;;;;;5024709;28;20205;-67
2022/11/02 07:21:33;;;;;;;3.00;1.40;;;10.70;99.90;;;;;;5030553;28;20203;-68
2022/11/02 07:23:59;;;;;;;3.65;1.60;;;10.80;99.90;;;;;;5034963;28;20202;-68
2022/11/02 07:26:26;;;;;;;3.15;1.60;;;10.90;99.90;;;;;;5035673;28;20271;-67
2022/11/02 07:28:54;;;;;;;2.08;1.50;;;11.10;99.90;;;;;;5159301;22;21168;-68
2022/11/02 07:31:21;;;;;;;3.40;1.33;;;11.20;99.90;;;;;;5005407;28;20253;-69
2022/11/02 07:33:47;;;;;;;3.47;1.40;;;11.40;99.90;;;;;;4998798;28;20207;-69
2022/11/02 07:36:14;;;;;;;1.55;1.27;;;11.50;99.90;;;;;;5008727;28;20220;-69
2022/11/02 07:38:42;;;;;;;2.80;1.77;;;11.60;99.90;;;;;;5014310;28;20206;-68
2022/11/02 07:41:09;;;;;;;2.65;1.20;;;11.70;99.90;;;;;;5005882;28;20195;-69
2022/11/02 07:43:35;;;;;;;3.10;1.60;;;11.70;99.90;;;;;;5004087;28;20196;-69
2022/11/02 07:46:03;;;;;;;2.55;1.25;;;11.80;99.90;;;;;;5007513;28;20235;-69
2022/11/02 07:48:30;;;;;;;3.00;1.40;;;11.80;99.90;;;;;;5002930;28;20671;-68
2022/11/02 07:50:58;;;;;;;1.83;1.35;;;11.80;99.90;;;;;;5003070;28;20207;-69
2022/11/02 07:53:25;;;;;;;3.65;1.92;;;11.90;99.90;;;;;;4996542;28;20250;-69
2022/11/02 07:55:53;;;;;;;4.90;1.20;;;11.90;99.90;;;;;;4994050;28;20231;-69
2022/11/02 07:58:19;;;;;;;2.00;1.13;;;12.00;99.90;;;;;;4994299;28;20208;-69
2022/11/02 08:00:46;;;;;;;4.03;1.60;;;12.10;99.90;;;;;;4994214;28;20200;-69
2022/11/02 08:03:13;;;;;;;2.85;1.40;;;12.10;99.90;;;;;;4994096;28;20204;-68
2022/11/02 08:05:42;;;;;;;3.10;1.73;;;12.20;99.90;;;;;;4994370;28;20324;-68
2022/11/02 08:08:11;;;;;;;3.70;1.10;;;12.30;99.90;;;;;;4994754;28;20200;-68
2022/11/02 08:10:38;;;;;;;2.33;1.27;;;12.40;99.90;;;;;;4994414;28;20459;-68
2022/11/02 08:13:06;;;;;;;3.33;1.73;;;12.40;99.90;;;;;;4994179;28;20482;-68
2022/11/02 08:15:32;;;;;;;2.95;1.38;;;12.50;99.90;;;;;;4994013;28;20518;-68
2022/11/02 08:18:01;;;;;;;9.30;1.60;;;12.60;99.90;;;;;;4994323;28;20690;-68
2022/11/02 08:20:27;;;;;;;3.35;1.65;;;12.80;99.90;;;;;;4993976;28;20463;-68
2022/11/02 08:22:54;;;;;;;6.60;1.67;;;12.90;99.90;;;;;;4993503;28;20787;-68
2022/11/02 08:25:21;;;;;;;1.83;1.30;;;13.00;99.90;;;;;;4993255;28;20475;-68
2022/11/02 08:27:48;;;;;;;1.17;0.90;;;13.10;99.90;;;;;;4993416;28;20848;-69
2022/11/02 08:30:16;;;;;;;2.00;1.20;;;13.20;99.90;;;;;;4993345;28;20215;-69
2022/11/02 08:32:43;;;;;;;2.60;1.67;;;13.20;99.90;;;;;;4992984;28;20521;-72
2022/11/02 08:35:10;;;;;;;4.13;1.20;;;13.20;99.90;;;;;;4993790;28;20510;-71
2022/11/02 08:37:37;;;;;;;3.90;1.47;;;13.40;99.90;;;;;;4993401;28;20490;-70
2022/11/02 08:40:04;;;;;;;1.37;1.13;;;13.50;99.90;;;;;;4997806;28;20469;-69
2022/11/02 08:42:31;;;;;;;1.77;1.37;;;13.60;99.90;;;;;;5012824;28;21003;-69
2022/11/02 08:44:57;;;;;;;3.00;1.33;;;13.60;99.90;;;;;;4999406;28;20485;-70
2022/11/02 08:47:25;;;;;;;5.63;1.50;;;13.70;99.90;;;;;;4993900;28;20463;-70
2022/11/02 08:49:52;;;;;;;1.80;1.17;;;13.70;99.90;;;;;;4992307;28;20478;-70
2022/11/02 08:52:19;;;;;;;2.27;1.10;;;13.70;99.90;;;;;;4993263;28;20542;-68
2022/11/02 08:54:45;;;;;;;1.83;1.43;;;13.70;99.90;;;;;;4993282;28;20479;-68
2022/11/02 08:57:12;;;;;;;2.43;1.17;;;13.80;99.90;;;;;;4994061;28;20482;-69
2022/11/02 08:59:39;;;;;;;1.50;1.20;;;13.80;99.90;;;;;;4993237;28;20466;-70
2022/11/02 09:02:06;;;;;;;2.10;1.30;;;13.80;99.90;;;;;;4992962;28;20473;-69
2022/11/02 09:04:34;;;;;;;2.97;1.13;;;13.90;99.90;;;;;;4993544;28;20566;-69
2022/11/02 09:07:04;;;;;;;8.10;3.20;;;14.10;99.90;;;;;;4993320;28;20513;-69
2022/11/02 09:09:32;;;;;;;1.83;0.97;;;14.20;99.90;;;;;;4994926;28;20541;-68
2022/11/02 09:11:58;;;;;;;2.00;1.10;;;14.10;99.90;;;;;;4993178;28;20462;-70
2022/11/02 09:14:25;;;;;;;4.50;1.30;;;14.10;99.90;;;;;;4988464;28;20506;-69
2022/11/02 09:16:52;;;;;;;3.90;1.53;;;14.00;99.90;;;;;;4991454;28;20483;-69
2022/11/02 09:19:19;;;;;;;1.93;1.23;;;13.90;99.90;;;;;;4992358;28;20463;-69
2022/11/02 09:21:50;;;;;;;1.70;1.23;;;13.80;99.90;;;;;;4992173;28;20463;-69
2022/11/02 09:24:17;;;;;;;3.83;1.63;;;13.70;99.90;;;;;;4993075;28;20475;-69
2022/11/02 09:26:43;;;;;;;1.20;1.00;;;13.70;99.90;;;;;;4990466;28;20455;-70
2022/11/02 09:29:10;;;;;;;2.60;1.40;;;13.60;99.90;;;;;;4992232;28;20847;-69
2022/11/02 09:31:37;;;;;;;2.80;1.37;;;13.50;99.90;;;;;;4996060;28;20543;-68
2022/11/02 09:34:03;;;;;;;2.80;1.93;;;13.50;99.90;;;;;;4997233;28;20954;-69
2022/11/02 09:36:30;;;;;;;1.60;1.00;;;13.50;99.90;;;;;;4992105;28;20479;-68
2022/11/02 09:38:58;;;;;;;1.60;1.23;;;13.50;99.90;;;;;;4992044;28;20462;-68
2022/11/02 09:41:33;;;;;;;2.83;1.60;;;13.50;99.90;;;;;;4991171;28;20459;-69
2022/11/02 09:44:05;;;;;;;1.40;1.10;;;13.50;99.90;;;;;;5005123;28;20468;-69
2022/11/02 09:46:34;;;;;;;1.63;1.00;;;13.50;99.90;;;;;;5011406;28;20541;-69
2022/11/02 09:49:04;;;;;;;3.63;1.87;;;13.50;99.90;;;;;;5010942;28;20553;-68
2022/11/02 09:51:36;;;;;;;2.80;1.23;;;13.60;99.90;;;;;;5010728;28;20466;-69
2022/11/02 09:54:11;;;;;;;2.00;1.20;;;13.60;99.90;;;;;;5007690;28;20454;-68
2022/11/02 09:56:39;;;;;;;2.90;1.23;;;13.60;99.90;;;;;;5001872;28;20485;-69
2022/11/02 09:59:13;;;;;;;4.80;1.73;;;13.60;99.90;;;;;;5006273;28;20458;-69
2022/11/02 10:01:56;;;;;;;1.97;1.20;;;13.50;99.90;;;;;;4998609;28;20458;-68
2022/11/02 10:04:45;;;;;;;2.30;1.13;;;13.60;99.90;;;;;;4991004;28;20481;-67
2022/11/02 10:07:23;;;;;;;1.93;1.53;;;13.60;99.90;;;;;;4991452;28;20455;-67
2022/11/02 10:09:54;;;;;;;4.73;1.60;;;13.60;99.90;;;;;;4991399;28;20470;-67
2022/11/02 10:12:26;;;;;;;2.40;1.40;;;13.60;99.90;;;;;;4990882;28;20463;-67
2022/11/02 10:14:59;;;;;;;2.97;1.20;;;13.60;99.90;;;;;;4991262;28;20497;-67
2022/11/02 10:17:29;;;;;;;5.37;1.70;;;13.60;99.90;;;;;;4992403;28;20483;-67
2022/11/02 10:19:58;;;;;;;2.13;1.17;;;13.70;99.90;;;;;;4991877;28;20462;-67
2022/11/02 10:22:31;;;;;;;2.83;1.53;;;13.70;99.90;;;;;;4991788;28;20521;-67
2022/11/02 10:25:03;;;;;;;4.20;1.53;;;13.70;99.90;;;;;;4991048;28;20475;-67
2022/11/02 10:27:33;;;;;;;3.77;1.73;;;13.70;99.90;;;;;;4991000;28;20461;-66
2022/11/02 10:30:04;;;;;;;1.67;1.13;;;13.80;99.90;;;;;;4991273;28;20545;-67
2022/11/02 10:32:32;;;;;;;4.20;2.10;;;13.90;99.90;;;;;;4990127;28;20950;-67
2022/11/02 10:35:00;;;;;;;3.63;1.50;;;14.00;99.90;;;;;;4990410;28;20479;-66
2022/11/02 10:37:41;;;;;;;1.70;1.30;;;14.00;99.90;;;;;;4972092;28;20488;-67
2022/11/02 10:40:22;;;;;;;3.30;1.50;;;14.10;99.90;;;;;;4973105;28;20466;-67
2022/11/02 10:43:02;;;;;;;3.30;1.17;;;14.20;99.90;;;;;;4971122;28;20503;-66
2022/11/02 10:45:53;;;;;;;2.40;1.67;;;14.30;99.90;;;;;;4971651;28;20483;-67
2022/11/02 10:48:28;;;;;;;1.87;1.57;;;14.40;99.90;;;;;;4972223;28;20460;-67
2022/11/02 10:51:02;;;;;;;4.93;1.50;;;14.30;99.90;;;;;;4972050;28;20463;-68
2022/11/02 10:53:35;;;;;;;4.03;1.33;;;14.20;99.90;;;;;;4971491;28;20469;-68
2022/11/02 10:56:12;;;;;;;1.40;1.20;;;14.30;99.90;;;;;;4971462;28;20491;-67
2022/11/02 10:58:44;;;;;;;2.57;1.50;;;14.30;99.90;;;;;;4975957;28;20470;-67
2022/11/02 11:01:12;;;;;;;3.00;1.50;;;14.20;99.90;;;;;;4976107;28;20514;-68
2022/11/02 11:04:00;;;;;;;3.67;1.73;;;14.30;99.90;;;;;;4975585;28;20971;-68
2022/11/02 11:06:30;;;;;;;2.13;1.27;;;14.30;99.90;;;;;;4971523;28;20459;-67
2022/11/02 11:09:04;;;;;;;1.97;1.17;;;14.40;99.90;;;;;;4976325;28;20456;-67
2022/11/02 11:11:35;;;;;;;1.50;1.10;;;14.50;99.90;;;;;;4975049;28;20463;-67
2022/11/02 11:14:05;;;;;;;1.77;1.47;;;14.50;99.90;;;;;;4975835;28;20546;-67
2022/11/02 11:16:51;;;;;;;4.93;1.80;;;14.60;99.90;;;;;;4985000;28;20505;-67
2022/11/02 11:19:32;;;;;;;2.30;1.40;;;14.80;99.90;;;;;;4994400;28;20457;-67
2022/11/02 11:21:59;;;;;;;1.67;1.30;;;14.90;99.90;;;;;;4993600;28;20458;-67
2022/11/02 11:24:29;;;;;;;1.70;1.20;;;14.80;99.90;;;;;;4994625;28;20479;-67
2022/11/02 11:27:15;;;;;;;1.83;1.37;;;14.70;99.90;;;;;;4994390;28;20447;-67
2022/11/02 11:29:48;;;;;;;2.17;1.40;;;14.70;99.90;;;;;;4994321;28;20474;-67
2022/11/02 11:32:16;;;;;;;2.17;1.30;;;14.70;99.90;;;;;;4993694;28;20454;-67
2022/11/02 11:34:46;;;;;;;3.53;1.40;;;14.80;99.90;;;;;;4993603;28;20524;-67
2022/11/02 11:37:16;;;;;;;2.43;1.40;;;15.00;99.90;;;;;;4994264;28;20491;-67
2022/11/02 11:39:46;;;;;;;1.40;1.30;;;15.00;99.90;;;;;;4994018;28;20896;-67
2022/11/02 11:42:19;;;;;;;1.73;1.37;;;15.10;99.90;;;;;;4993687;28;20462;-67
2022/11/02 11:44:53;;;;;;;1.67;1.47;;;15.20;99.90;;;;;;4993941;28;20479;-68
2022/11/02 11:47:25;;;;;;;2.80;1.50;;;15.60;99.90;;;;;;4994447;28;20458;-68
2022/11/02 11:49:53;;;;;;;3.93;1.23;;;16.40;99.90;;;;;;4993864;28;20525;-68
2022/11/02 11:52:24;;;;;;;3.87;1.70;;;17.00;99.90;;;;;;4993448;28;20463;-68
2022/11/02 11:54:56;;;;;;;2.00;1.27;;;17.50;99.90;;;;;;4993424;28;20492;-68
2022/11/02 11:57:28;;;;;;;3.10;1.60;;;17.80;99.90;;;;;;4993579;28;20487;-68
2022/11/02 11:59:57;;;;;;;2.90;1.43;;;18.10;99.90;;;;;;4993949;28;20467;-68
2022/11/02 12:02:26;;;;;;;2.43;1.30;;;18.20;99.90;;;;;;4992612;28;20549;-68
2022/11/02 12:05:02;;;;;;;2.20;1.40;;;18.30;99.90;;;;;;4993132;28;20489;-68
2022/11/02 12:07:55;;;;;;;3.73;1.83;;;18.00;99.90;;;;;;4992784;28;20961;-68
2022/11/02 12:10:29;;;;;;;3.80;1.57;;;18.20;99.90;;;;;;4982472;28;20495;-68
2022/11/02 12:13:12;;;;;;;6.50;1.40;;;18.30;99.90;;;;;;4993033;28;20463;-68
2022/11/02 12:15:56;;;;;;;2.80;1.43;;;18.50;99.90;;;;;;4993198;28;20489;-68
2022/11/02 12:18:39;;;;;;;2.50;1.40;;;18.60;99.90;;;;;;4993160;28;20489;-68
2022/11/02 12:21:21;;;;;;;5.60;1.63;;;19.00;99.90;;;;;;4993627;28;20578;-68
2022/11/02 12:24:12;;;;;;;2.23;1.60;;;19.30;99.90;;;;;;4992817;28;20462;-68
2022/11/02 12:26:49;;;;;;;4.87;1.67;;;19.60;99.90;;;;;;4992662;28;20498;-68
2022/11/02 12:29:38;;;;;;;6.67;1.80;;;19.40;99.90;;;;;;4993132;28;20477;-68
2022/11/02 12:32:15;;;;;;;2.50;1.77;;;19.00;99.90;;;;;;4992602;28;20830;-68
2022/11/02 12:35:00;;;;;;;2.17;1.30;;;18.50;99.90;;;;;;4990514;28;20493;-68
2022/11/02 12:37:35;;;;;;;4.43;1.57;;;18.00;99.90;;;;;;4992781;28;21019;-67
2022/11/02 12:40:16;;;;;;;2.07;1.20;;;17.70;99.90;;;;;;4992923;28;20465;-67
2022/11/02 12:42:50;;;;;;;1.30;1.00;;;17.70;99.90;;;;;;4992170;28;20459;-68
2022/11/02 12:45:26;;;;;;;4.50;1.40;;;18.00;99.90;;;;;;4992968;28;20482;-67
2022/11/02 12:47:58;;;;;;;2.03;1.20;;;17.80;99.90;;;;;;4991902;28;20462;-68
2022/11/02 12:50:40;;;;;;;3.97;1.60;;;17.50;99.90;;;;;;4992707;28;21038;-68
2022/11/02 12:53:21;;;;;;;3.00;1.43;;;17.30;99.90;;;;;;4992546;28;20455;-68
2022/11/02 12:55:51;;;;;;;1.97;1.23;;;17.30;99.90;;;;;;4991730;28;20489;-67
2022/11/02 12:58:21;;;;;;;1.90;1.10;;;17.40;99.90;;;;;;4991998;28;21013;-67
2022/11/02 13:00:56;;;;;;;2.57;1.17;;;17.60;99.90;;;;;;4992213;28;20467;-68
2022/11/02 13:03:32;;;;;;;1.50;0.97;;;17.90;99.90;;;;;;4992368;28;20458;-67
2022/11/02 13:06:05;;;;;;;2.30;1.20;;;18.20;99.90;;;;;;4992856;28;20479;-68
2022/11/02 13:08:38;;;;;;;1.87;1.13;;;18.20;99.90;;;;;;4992187;28;21016;-67
2022/11/02 13:11:10;;;;;;;1.40;1.10;;;18.40;99.90;;;;;;4992495;28;20969;-68
2022/11/02 13:13:42;;;;;;;3.33;1.47;;;18.30;99.90;;;;;;4992025;28;20550;-67
2022/11/02 13:16:11;;;;;;;1.53;1.33;;;18.40;99.90;;;;;;4992003;28;20491;-66
2022/11/02 13:18:44;;;;;;;2.67;1.53;;;18.50;99.90;;;;;;4991774;28;20510;-68
2022/11/02 13:21:13;;;;;;;2.93;2.00;;;18.40;99.90;;;;;;4991648;28;20533;-68
2022/11/02 13:23:43;;;;;;;3.23;1.80;;;18.10;99.90;;;;;;4991797;28;20469;-68